Meedville, Mississippi
Current Conditions -  °F | °C
As of 10:53 PM on Friday 19 Dec 2014 (Local Time) from KMCB Reporting Station
Light Rain Light Rain  
Wind Chill: 43°   Ceiling: 500
Heat Index: 47°   Visibility: 8mi
Dew Point: 44°   Wind: 8mph
Humidity: 90%   Direction: 360°N
Pressure: 30.13"   Gusts: NA
Location:  31.4031°N, 90.8369°W
Report Text: KMCB 200453Z AUTO 36007KT 8SM -RA OVC005 08/07 A3013 RMK AO2 RAE32B48 SLP200 P0003 T00830067
Loading
Personal Weather Stations






























Interactive Weather Map New forecast layout! Learn more

10-Day Weather Forecast

Advertisements
Track Severe Weather on mobile